createdAt,value
2023-11-21T00:00:52.718Z,20.27
2023-11-21T00:03:40.264Z,28.02
2023-11-21T00:06:27.737Z,16.05
2023-11-21T00:09:16.557Z,17.63
2023-11-21T00:12:07.142Z,23.70
2023-11-21T00:14:58.518Z,14.65
2023-11-21T00:17:45.944Z,31.88
2023-11-21T00:20:33.203Z,14.80
2023-11-21T00:23:25.151Z,22.02
2023-11-21T00:26:15.415Z,18.90
2023-11-21T00:29:02.934Z,22.90
2023-11-21T00:31:50.203Z,23.75
2023-11-21T00:34:37.502Z,20.45
2023-11-21T00:37:25.202Z,19.02
2023-11-21T00:40:13.160Z,15.60
2023-11-21T00:43:01.204Z,11.02
2023-11-21T00:45:52.317Z,11.88
2023-11-21T00:48:39.516Z,16.27
2023-11-21T00:51:26.676Z,12.73
2023-11-21T00:54:18.139Z,16.10
2023-11-21T00:57:09.657Z,17.08
2023-11-21T00:59:56.829Z,15.10
2023-11-21T01:02:46.984Z,15.73
2023-11-21T01:05:35.491Z,10.50
2023-11-21T01:08:22.887Z,10.82
2023-11-21T01:11:11.589Z,9.88
2023-11-21T01:13:58.929Z,7.20
2023-11-21T01:16:46.934Z,13.13
2023-11-21T01:19:36.634Z,7.80
2023-11-21T01:22:27.385Z,12.05
2023-11-21T01:25:15.684Z,9.55
2023-11-21T01:28:03.190Z,6.13
2023-11-21T01:30:50.598Z,8.73
2023-11-21T01:33:37.850Z,9.05
2023-11-21T01:36:33.137Z,10.77
2023-11-21T01:39:24.930Z,8.82
2023-11-21T01:42:14.198Z,6.75
2023-11-21T01:45:06.050Z,5.63
2023-11-21T01:47:57.614Z,7.73
2023-11-21T01:50:46.098Z,7.63
2023-11-21T01:53:33.703Z,9.13
2023-11-21T01:56:20.968Z,7.00
2023-11-21T01:59:11.106Z,7.45
2023-11-21T02:01:58.270Z,8.85
2023-11-21T02:04:45.664Z,6.40
2023-11-21T02:07:33.494Z,5.32
2023-11-21T02:10:24.528Z,4.30
2023-11-21T02:13:12.424Z,11.25
2023-11-21T02:15:59.675Z,7.82
2023-11-21T02:18:49.744Z,11.57
2023-11-21T02:21:41.448Z,8.13
2023-11-21T02:24:31.049Z,12.68
2023-11-21T02:27:23.173Z,8.70
2023-11-21T02:30:14.586Z,7.05
2023-11-21T02:33:02.606Z,6.15
2023-11-21T02:35:50.202Z,5.65
2023-11-21T02:38:37.414Z,4.30
2023-11-21T02:41:24.756Z,3.42
2023-11-21T02:44:12.287Z,6.05
2023-11-21T02:47:01.714Z,11.40
2023-11-21T02:49:53.022Z,9.60
2023-11-21T02:52:43.636Z,7.50
2023-11-21T02:55:32.170Z,4.70
2023-11-21T02:58:19.411Z,1.98
2023-11-21T03:01:06.752Z,5.00
2023-11-21T03:03:57.065Z,5.25
2023-11-21T03:06:46.754Z,5.07
2023-11-21T03:09:36.583Z,7.68
2023-11-21T03:12:23.742Z,8.63
2023-11-21T03:15:11.279Z,3.92
2023-11-21T03:17:58.631Z,4.40
2023-11-21T03:20:48.264Z,6.32
2023-11-21T03:23:36.028Z,5.07
2023-11-21T03:26:23.552Z,5.50
2023-11-21T03:29:10.693Z,4.55
2023-11-21T03:31:57.924Z,3.97
2023-11-21T03:34:57.424Z,7.75
2023-11-21T03:37:45.198Z,2.97
2023-11-21T03:40:33.102Z,3.33
2023-11-21T03:43:20.354Z,5.07
2023-11-21T03:46:08.484Z,5.18
2023-11-21T03:48:56.769Z,3.60
2023-11-21T03:51:43.953Z,4.38
2023-11-21T03:54:31.144Z,5.15
2023-11-21T03:57:18.396Z,6.32
2023-11-21T04:00:09.870Z,6.43
2023-11-21T04:03:00.032Z,5.65
2023-11-21T04:05:48.405Z,5.45
2023-11-21T04:08:35.635Z,6.40
2023-11-21T04:11:23.188Z,1.88
2023-11-21T04:14:10.646Z,4.65
2023-11-21T04:16:57.863Z,3.70
2023-11-21T04:19:47.617Z,2.60
2023-11-21T04:22:34.840Z,6.15
2023-11-21T04:25:23.962Z,2.42
2023-11-21T04:28:11.192Z,5.45
2023-11-21T04:30:58.863Z,1.40
2023-11-21T04:33:46.158Z,7.00
2023-11-21T04:36:33.465Z,4.82
2023-11-21T04:39:21.213Z,5.72
2023-11-21T04:42:08.388Z,2.33
2023-11-21T04:44:56.084Z,3.30
2023-11-21T04:47:46.489Z,6.95
2023-11-21T04:50:33.705Z,3.92
2023-11-21T04:53:23.470Z,3.30
2023-11-21T04:56:10.695Z,3.03
2023-11-21T04:58:57.909Z,1.45
2023-11-21T05:01:45.282Z,8.52
2023-11-21T05:04:32.592Z,4.78
2023-11-21T05:07:19.803Z,5.43
2023-11-21T05:10:11.753Z,3.03
2023-11-21T05:12:59.717Z,3.83
2023-11-21T05:15:47.125Z,3.50
2023-11-21T05:18:35.507Z,4.75
2023-11-21T05:21:23.033Z,4.80
2023-11-21T05:24:12.683Z,2.53
2023-11-21T05:26:59.919Z,6.15
2023-11-21T05:29:47.101Z,3.58
2023-11-21T05:32:35.594Z,3.05
2023-11-21T05:35:22.893Z,2.63
2023-11-21T05:38:10.085Z,3.53
2023-11-21T05:40:57.427Z,7.05
2023-11-21T05:43:45.041Z,3.47
2023-11-21T05:46:34.686Z,3.83
2023-11-21T05:49:24.613Z,10.43
2023-11-21T05:52:11.864Z,5.50
2023-11-21T05:54:59.151Z,8.10
2023-11-21T05:57:46.429Z,7.72
2023-11-21T06:00:34.427Z,7.55
2023-11-21T06:03:21.775Z,6.68
2023-11-21T06:06:09.388Z,4.50
2023-11-21T06:08:58.899Z,7.10
2023-11-21T06:11:46.092Z,9.43
2023-11-21T06:14:36.333Z,10.70
2023-11-21T06:17:25.881Z,6.03
2023-11-21T06:20:16.421Z,9.90
2023-11-21T06:23:04.912Z,10.68
2023-11-21T06:25:52.494Z,7.05
2023-11-21T06:28:39.796Z,9.27
2023-11-21T06:31:27.131Z,8.88
2023-11-21T06:34:16.657Z,9.30
2023-11-21T06:37:04.004Z,9.82
2023-11-21T06:39:53.435Z,11.18
2023-11-21T06:42:40.665Z,11.85
2023-11-21T06:45:28.136Z,8.40
2023-11-21T06:48:16.110Z,12.63
2023-11-21T06:51:03.411Z,11.55
2023-11-21T06:53:53.075Z,14.55
2023-11-21T06:56:42.849Z,11.32
2023-11-21T06:59:32.504Z,10.20
2023-11-21T07:02:20.116Z,11.20
2023-11-21T07:05:10.315Z,11.27
2023-11-21T07:08:05.792Z,8.13
2023-11-21T07:10:55.968Z,12.93
2023-11-21T07:13:45.835Z,12.40
2023-11-21T07:16:33.131Z,14.57
2023-11-21T07:19:21.062Z,14.05
2023-11-21T07:22:09.609Z,10.35
2023-11-21T07:25:02.290Z,10.20
2023-11-21T07:30:39.592Z,9.13
2023-11-21T07:33:29.169Z,11.07
2023-11-21T07:36:20.597Z,11.68
2023-11-21T07:39:07.848Z,10.63
2023-11-21T07:41:59.113Z,6.93
2023-11-21T07:44:49.626Z,9.52
2023-11-21T07:47:39.311Z,8.13
2023-11-21T07:50:27.958Z,5.82
2023-11-21T07:53:15.799Z,7.32
2023-11-21T07:56:11.003Z,8.98
2023-11-21T07:59:03.928Z,8.48
2023-11-21T08:01:51.550Z,4.10
2023-11-21T08:04:38.971Z,3.45
2023-11-21T08:07:27.275Z,5.10
2023-11-21T08:10:15.363Z,5.32
2023-11-21T08:13:03.803Z,5.20
2023-11-21T08:15:51.506Z,5.55
2023-11-21T08:18:38.874Z,5.45
2023-11-21T08:21:30.432Z,2.95
2023-11-21T08:24:17.824Z,5.10
2023-11-21T08:27:06.957Z,4.65
2023-11-21T08:29:57.550Z,4.05
2023-11-21T08:32:44.878Z,4.03
2023-11-21T08:35:33.074Z,2.95
2023-11-21T08:38:23.864Z,5.28
2023-11-21T08:41:17.206Z,6.03
2023-11-21T08:44:09.500Z,3.05
2023-11-21T08:46:58.835Z,3.55
2023-11-21T08:49:48.842Z,3.67
2023-11-21T08:52:36.239Z,3.65
2023-11-21T08:55:23.721Z,3.90
2023-11-21T08:58:13.561Z,5.07
2023-11-21T09:01:00.871Z,1.77
2023-11-21T09:03:49.128Z,2.75
2023-11-21T09:06:39.178Z,3.83
2023-11-21T09:09:26.708Z,3.67
2023-11-21T09:12:14.406Z,3.40
2023-11-21T09:15:06.176Z,5.43
2023-11-21T09:17:54.157Z,2.17
2023-11-21T09:20:41.560Z,2.97
2023-11-21T09:23:28.873Z,3.65
2023-11-21T09:26:17.408Z,6.32
2023-11-21T09:29:09.257Z,4.60
2023-11-21T09:32:00.890Z,3.45
2023-11-21T09:34:52.619Z,2.85
2023-11-21T09:37:40.535Z,4.60
2023-11-21T09:40:28.189Z,2.95
2023-11-21T09:43:19.694Z,4.13
2023-11-21T09:46:12.020Z,2.53
2023-11-21T09:49:08.848Z,2.55
2023-11-21T09:52:04.560Z,3.85
2023-11-21T09:54:54.309Z,2.50
2023-11-21T09:57:44.283Z,3.20
2023-11-21T10:00:34.204Z,6.10
2023-11-21T10:03:24.499Z,2.85
2023-11-21T10:06:18.530Z,2.47
2023-11-21T10:09:13.990Z,22.23
2023-11-21T10:12:08.637Z,6.80
2023-11-21T10:15:13.612Z,7.75
2023-11-21T10:18:04.857Z,3.80
2023-11-21T10:20:57.548Z,3.53
2023-11-21T10:26:48.158Z,6.68
2023-11-21T10:29:45.687Z,8.45
2023-11-21T10:32:34.098Z,7.22
2023-11-21T10:35:22.880Z,6.65
2023-11-21T10:38:16.549Z,7.30
2023-11-21T10:41:06.413Z,7.15
2023-11-21T10:43:57.316Z,5.68
2023-11-21T10:46:52.228Z,6.35
2023-11-21T10:49:41.624Z,7.10
2023-11-21T10:52:31.632Z,5.88
2023-11-21T10:55:25.275Z,5.90
2023-11-21T10:58:15.880Z,7.28
2023-11-21T11:01:08.448Z,6.43
2023-11-21T11:03:58.944Z,6.35
2023-11-21T11:06:57.284Z,7.05
2023-11-21T11:09:46.518Z,6.53
2023-11-21T11:12:33.867Z,10.75
2023-11-21T11:15:22.012Z,5.05
2023-11-21T11:18:12.115Z,8.75
2023-11-21T11:21:21.861Z,8.30
2023-11-21T11:24:46.826Z,9.07
2023-11-21T11:28:01.013Z,13.98
2023-11-21T11:31:05.282Z,6.85
2023-11-21T11:34:21.836Z,5.35
2023-11-21T11:37:12.448Z,5.88
2023-11-21T11:40:01.316Z,3.25
2023-11-21T11:43:00.859Z,3.72
2023-11-21T11:45:53.104Z,3.33
2023-11-21T11:48:46.508Z,2.85
2023-11-21T11:51:34.189Z,4.30
2023-11-21T11:54:36.549Z,6.93
2023-11-21T11:57:27.116Z,5.53
2023-11-21T12:00:22.797Z,4.30
2023-11-21T12:03:11.169Z,7.60
2023-11-21T12:06:01.650Z,5.45
2023-11-21T12:08:48.859Z,4.13
2023-11-21T12:11:41.938Z,3.63
2023-11-21T12:14:31.259Z,4.82
2023-11-21T12:17:25.614Z,5.38
2023-11-21T12:20:18.634Z,7.65
2023-11-21T12:23:07.334Z,4.65
2023-11-21T12:25:54.747Z,4.57
2023-11-21T12:28:44.609Z,5.10
2023-11-21T12:31:37.330Z,5.65
2023-11-21T12:34:24.933Z,5.05
2023-11-21T12:37:12.245Z,5.65
2023-11-21T12:39:59.517Z,6.40
2023-11-21T13:52:01.860Z,5.72
2023-11-21T13:54:49.331Z,5.65
2023-11-21T13:57:36.754Z,9.48
2023-11-21T14:00:44.795Z,4.53
2023-11-21T14:03:53.909Z,6.20
2023-11-21T14:06:49.227Z,2.75
2023-11-21T14:09:45.576Z,4.03
2023-11-21T14:12:41.877Z,3.28
2023-11-21T14:15:30.377Z,3.40
2023-11-21T14:18:30.613Z,4.97
2023-11-21T14:21:20.464Z,2.17
2023-11-21T14:24:11.608Z,2.17
2023-11-21T14:27:01.593Z,1.88
2023-11-21T14:29:52.768Z,1.65
2023-11-21T14:32:40.538Z,1.80
2023-11-21T14:35:33.809Z,1.90
2023-11-21T14:38:21.522Z,2.33
2023-11-21T14:41:12.541Z,2.50
2023-11-21T14:44:01.045Z,2.72
2023-11-21T14:46:52.116Z,2.83
2023-11-21T14:49:54.438Z,2.45
2023-11-21T14:52:56.987Z,2.55
2023-11-21T14:55:52.791Z,3.40
2023-11-21T14:58:42.532Z,4.60
2023-11-21T15:01:54.428Z,6.38
2023-11-21T15:05:03.994Z,6.13
2023-11-21T15:07:58.801Z,4.90
2023-11-21T15:10:58.531Z,3.85
2023-11-21T15:13:46.375Z,6.13
2023-11-21T15:16:48.402Z,6.88
2023-11-21T15:19:37.951Z,6.13
2023-11-21T15:22:26.886Z,6.43
2023-11-21T15:25:19.114Z,5.20
2023-11-21T15:28:06.617Z,5.97
2023-11-21T15:30:58.979Z,5.45
2023-11-21T15:33:47.505Z,9.02
2023-11-21T15:36:34.909Z,5.93
2023-11-21T15:39:33.454Z,6.63
2023-11-21T15:42:24.880Z,8.55
2023-11-21T15:45:14.970Z,7.07
2023-11-21T15:48:07.478Z,8.40
2023-11-21T15:50:59.205Z,10.52
2023-11-21T15:53:50.520Z,11.40
2023-11-21T15:56:39.980Z,10.30
2023-11-21T15:59:33.260Z,13.65
2023-11-21T16:02:21.115Z,10.55
2023-11-21T16:05:09.753Z,11.73
2023-11-21T16:07:57.320Z,14.13
2023-11-21T16:10:44.933Z,12.20
2023-11-21T16:13:35.574Z,19.15
2023-11-21T16:16:23.784Z,12.27
2023-11-21T16:19:11.387Z,12.65
2023-11-21T16:21:58.886Z,15.20
2023-11-21T16:24:49.224Z,16.30
2023-11-21T16:27:39.654Z,17.52
2023-11-21T16:30:27.767Z,15.07
2023-11-21T16:33:15.404Z,17.45
2023-11-21T16:36:02.977Z,18.08
2023-11-21T16:38:50.457Z,16.77
2023-11-21T16:41:37.860Z,21.85
2023-11-21T16:44:25.989Z,19.55
2023-11-21T16:47:13.491Z,24.83
2023-11-21T16:50:01.244Z,21.20
2023-11-21T16:52:50.013Z,21.95
2023-11-21T16:55:40.032Z,26.23
2023-11-21T16:58:27.338Z,22.55
2023-11-21T17:01:14.826Z,27.17
2023-11-21T17:04:03.736Z,27.65
2023-11-21T17:06:51.234Z,24.92
2023-11-21T17:09:40.492Z,29.95
2023-11-21T17:12:28.943Z,27.85
2023-11-21T17:15:20.322Z,62.00
2023-11-21T17:18:09.510Z,49.53
2023-11-21T17:20:57.270Z,31.08
2023-11-21T17:23:44.771Z,28.42
2023-11-21T17:26:35.232Z,30.15
2023-11-21T17:29:23.353Z,31.90
2023-11-21T17:32:11.524Z,30.33
2023-11-21T17:35:02.523Z,30.52
2023-11-21T17:37:50.234Z,32.13
2023-11-21T17:40:37.951Z,35.28
2023-11-21T17:43:27.891Z,36.67
2023-11-21T17:46:26.669Z,51.85
2023-11-21T17:49:14.267Z,50.33
2023-11-21T17:52:01.740Z,61.03
2023-11-21T17:54:49.250Z,71.97
2023-11-21T17:57:36.983Z,59.00
2023-11-21T18:00:27.845Z,60.80
2023-11-21T18:03:15.640Z,42.55
2023-11-21T18:06:03.479Z,56.45
2023-11-21T18:08:53.557Z,52.25
2023-11-21T18:11:41.006Z,48.97
2023-11-21T18:14:33.356Z,63.05
2023-11-21T18:17:21.218Z,62.25
2023-11-21T18:20:12.132Z,54.92
2023-11-21T18:22:59.667Z,61.35
2023-11-21T18:25:52.460Z,67.45
2023-11-21T18:28:42.675Z,61.72
2023-11-21T18:31:31.768Z,60.90
2023-11-21T18:34:19.502Z,67.43
2023-11-21T18:37:08.011Z,65.72
2023-11-21T18:39:55.570Z,57.65
2023-11-21T18:42:46.508Z,62.60
2023-11-21T18:45:36.084Z,62.67
2023-11-21T18:48:23.722Z,60.72
2023-11-21T18:51:13.902Z,66.53
2023-11-21T18:54:01.650Z,56.35
2023-11-21T18:56:49.073Z,59.22
2023-11-21T18:59:37.072Z,58.85
2023-11-21T19:02:27.621Z,52.67
2023-11-21T19:05:18.521Z,56.70
2023-11-21T19:08:07.435Z,48.70
2023-11-21T19:10:55.262Z,58.60
2023-11-21T19:13:43.151Z,57.25
2023-11-21T19:16:30.519Z,61.45
2023-11-21T19:19:21.596Z,58.15
2023-11-21T19:22:09.568Z,58.28
2023-11-21T19:24:57.161Z,68.28
2023-11-21T19:27:45.327Z,58.58
2023-11-21T19:30:33.961Z,57.15
2023-11-21T19:33:21.640Z,50.45
2023-11-21T19:36:09.697Z,58.97
2023-11-21T19:38:59.696Z,54.20
2023-11-21T19:41:47.716Z,57.05
2023-11-21T19:44:38.038Z,53.80
2023-11-21T19:47:26.013Z,54.63
2023-11-21T19:50:14.083Z,49.78
2023-11-21T19:53:01.723Z,52.67
2023-11-21T19:55:49.409Z,53.05
2023-11-21T19:58:42.707Z,51.55
2023-11-21T20:01:31.179Z,52.55
2023-11-21T20:04:21.228Z,49.22
2023-11-21T20:07:09.133Z,50.63
2023-11-21T20:09:56.780Z,47.95
2023-11-21T20:12:52.216Z,52.95
2023-11-21T20:15:46.305Z,52.22
2023-11-21T20:18:34.488Z,54.72
2023-11-21T20:21:25.444Z,59.38
2023-11-21T20:24:15.288Z,57.10
2023-11-21T20:27:06.735Z,61.53
2023-11-21T20:29:54.110Z,75.10
2023-11-21T20:32:44.285Z,66.53
2023-11-21T20:35:34.748Z,65.35
2023-11-21T20:38:24.808Z,62.42
2023-11-21T20:41:15.754Z,65.25
2023-11-21T20:44:06.927Z,68.03
2023-11-21T20:47:03.505Z,56.90
2023-11-21T20:49:59.626Z,77.18
2023-11-21T20:52:47.304Z,67.72
2023-11-21T20:55:34.853Z,75.70
2023-11-21T20:58:22.377Z,63.92
2023-11-21T21:01:10.113Z,70.40
2023-11-21T21:03:57.825Z,66.47
2023-11-21T21:06:45.705Z,64.78
2023-11-21T21:09:33.847Z,67.43
2023-11-21T21:12:21.339Z,62.05
2023-11-21T21:15:12.506Z,56.40
2023-11-21T21:18:02.253Z,66.88
2023-11-21T21:20:51.884Z,66.90
2023-11-21T21:23:39.524Z,61.92
2023-11-21T21:26:29.406Z,61.88
2023-11-21T21:29:21.831Z,63.35
2023-11-21T21:32:09.592Z,55.10
2023-11-21T21:34:58.295Z,68.25
2023-11-21T21:37:48.405Z,56.58
2023-11-21T21:40:36.750Z,53.58
2023-11-21T21:43:26.143Z,63.10
2023-11-21T21:46:20.423Z,65.85
2023-11-21T21:49:07.917Z,61.38
2023-11-21T21:51:55.437Z,57.88
2023-11-21T21:54:45.251Z,56.08
2023-11-21T21:57:33.458Z,57.90
2023-11-21T22:00:24.950Z,56.80
2023-11-21T22:03:15.064Z,57.83
2023-11-21T22:06:02.609Z,61.08
2023-11-21T22:08:50.380Z,62.78
2023-11-21T22:11:37.865Z,58.35
2023-11-21T22:14:25.340Z,57.72
2023-11-21T22:17:18.091Z,52.75
2023-11-21T22:20:06.902Z,58.33
2023-11-21T22:22:54.406Z,55.67
2023-11-21T22:25:41.965Z,64.93
2023-11-21T22:28:29.701Z,65.43
2023-11-21T22:31:17.180Z,58.55
2023-11-21T22:34:05.271Z,59.33
2023-11-21T22:36:54.401Z,62.03
2023-11-21T22:39:45.410Z,61.42
2023-11-21T22:42:35.651Z,53.70
2023-11-21T22:45:25.441Z,61.10
2023-11-21T22:48:13.074Z,57.30
2023-11-21T22:51:00.575Z,57.60
2023-11-21T22:53:48.245Z,57.17
2023-11-21T22:56:38.399Z,57.30
2023-11-21T22:59:25.973Z,64.90
2023-11-21T23:02:15.064Z,60.85
2023-11-21T23:05:05.403Z,58.50
2023-11-21T23:07:52.872Z,53.78
2023-11-21T23:10:40.444Z,65.70
2023-11-21T23:13:28.922Z,54.08
2023-11-21T23:16:18.666Z,61.03
2023-11-21T23:19:06.506Z,57.63
2023-11-21T23:21:53.975Z,54.00
2023-11-21T23:24:42.582Z,56.20
2023-11-21T23:27:29.840Z,56.50
2023-11-21T23:30:17.173Z,54.70
2023-11-21T23:33:04.433Z,56.78
2023-11-21T23:35:51.766Z,55.78
2023-11-21T23:38:43.273Z,51.17
2023-11-21T23:41:30.687Z,56.80
2023-11-21T23:44:18.033Z,59.85
2023-11-21T23:47:05.492Z,51.17
2023-11-21T23:49:53.087Z,46.88
2023-11-21T23:52:40.363Z,53.50
2023-11-21T23:55:30.068Z,46.30
2023-11-21T23:58:17.867Z,48.92
